Time;durP1;ratioP1;P1;durP2;ratioP2;P2;SDS_P1;SDS_P2;PMS_P1;PMS_P2;Temp;Humidity;BMP_temperature;BMP_pressure;BME280_temperature;BME280_humidity;BME280_pressure;Samples;Min_cycle;Max_cycle;Signal;HPM_P1;HPM_P2
2022/04/17 00:02:01;;;;;;;1.10;1.10;;;20.20;57.30;;;;;;4958070;28;20039;-15
2022/04/17 00:04:27;;;;;;;1.00;1.00;;;20.20;57.30;;;;;;4957543;28;20057;-15
2022/04/17 00:06:52;;;;;;;0.82;0.82;;;20.20;57.30;;;;;;4957580;28;20043;-14
2022/04/17 00:09:18;;;;;;;0.88;0.88;;;20.20;57.30;;;;;;4957278;28;20489;-15
2022/04/17 00:11:44;;;;;;;0.95;0.95;;;20.20;57.40;;;;;;4957746;28;20054;-15
2022/04/17 00:14:12;;;;;;;1.00;1.00;;;20.20;57.40;;;;;;4956983;28;20066;-15
2022/04/17 00:16:40;;;;;;;1.27;1.17;;;20.20;57.50;;;;;;4962560;28;20047;-14
2022/04/17 00:19:06;;;;;;;1.17;1.17;;;20.20;57.50;;;;;;4975506;28;20393;-15
2022/04/17 00:21:33;;;;;;;1.10;1.10;;;20.20;57.40;;;;;;4975845;28;20055;-14
2022/04/17 00:23:58;;;;;;;1.00;1.00;;;20.20;57.40;;;;;;4976623;28;20067;-15
2022/04/17 00:26:24;;;;;;;1.33;1.23;;;20.20;57.50;;;;;;4976086;28;20058;-15
2022/04/17 00:28:50;;;;;;;1.00;1.00;;;20.20;57.40;;;;;;4975308;28;20050;-14
2022/04/17 00:31:15;;;;;;;1.00;1.00;;;20.20;57.30;;;;;;4957767;28;20043;-15
2022/04/17 00:33:41;;;;;;;0.90;0.90;;;20.20;57.60;;;;;;4957343;28;20047;-15
2022/04/17 00:36:06;;;;;;;1.00;1.00;;;20.20;57.40;;;;;;4956828;28;20130;-15
2022/04/17 00:38:32;;;;;;;1.00;1.00;;;20.20;57.30;;;;;;4957068;28;20051;-15
2022/04/17 00:40:57;;;;;;;2.15;1.00;;;20.20;57.40;;;;;;4957237;28;20059;-14
2022/04/17 00:43:30;;;;;;;1.10;1.10;;;20.10;57.50;;;;;;4963357;28;20130;-14
2022/04/17 00:45:56;;;;;;;0.90;0.90;;;20.10;57.80;;;;;;4975134;28;20039;-15
2022/04/17 00:48:22;;;;;;;0.93;0.93;;;20.10;57.40;;;;;;4975624;28;20051;-15
2022/04/17 00:50:53;;;;;;;0.85;0.85;;;20.10;57.60;;;;;;4965217;28;20039;-14
2022/04/17 00:53:21;;;;;;;0.98;0.98;;;20.10;57.40;;;;;;4978404;28;20053;-15
2022/04/17 00:55:47;;;;;;;1.08;1.08;;;20.10;57.50;;;;;;4980245;28;20500;-14
2022/04/17 00:58:14;;;;;;;1.00;1.00;;;20.10;57.40;;;;;;4979663;28;20389;-14
2022/04/17 01:00:40;;;;;;;1.15;1.10;;;20.10;57.60;;;;;;4979022;28;20126;-14
2022/04/17 01:03:06;;;;;;;1.00;1.00;;;20.10;57.50;;;;;;4965482;28;20102;-14
2022/04/17 01:05:32;;;;;;;1.00;1.00;;;20.10;57.60;;;;;;4952658;28;20051;-15
2022/04/17 01:07:57;;;;;;;0.90;0.90;;;20.00;57.60;;;;;;4960636;28;20101;-15
2022/04/17 01:10:24;;;;;;;0.90;0.90;;;20.00;57.50;;;;;;4982977;28;20091;-15
2022/04/17 01:12:51;;;;;;;1.13;1.13;;;20.10;57.60;;;;;;4960956;28;20058;-15
2022/04/17 01:15:17;;;;;;;0.98;0.98;;;20.00;57.60;;;;;;4960011;28;20051;-15
2022/04/17 01:17:42;;;;;;;0.98;0.98;;;20.00;57.70;;;;;;4956185;28;20514;-15
2022/04/17 01:20:08;;;;;;;0.90;0.90;;;20.00;57.60;;;;;;4979318;28;20046;-16
2022/04/17 01:22:33;;;;;;;0.90;0.90;;;20.00;57.60;;;;;;4978172;28;20085;-15
2022/04/17 01:27:43;;;;;;;0.95;0.95;;;20.00;57.50;;;;;;4963067;28;20058;-15
2022/04/17 01:30:10;;;;;;;1.20;1.13;;;20.00;57.60;;;;;;4974464;28;20035;-15
2022/04/17 01:32:35;;;;;;;0.98;0.98;;;20.00;57.50;;;;;;4960131;28;20047;-15
2022/04/17 01:35:01;;;;;;;1.10;1.10;;;20.00;57.60;;;;;;4960548;28;20051;-14
2022/04/17 01:37:27;;;;;;;1.20;1.20;;;20.00;57.60;;;;;;4959475;28;20154;-14
2022/04/17 01:39:52;;;;;;;1.10;1.10;;;20.00;57.40;;;;;;4960162;28;20043;-15
2022/04/17 01:42:18;;;;;;;1.30;1.20;;;20.00;57.70;;;;;;4959803;28;20059;-15
2022/04/17 01:44:44;;;;;;;1.17;1.17;;;20.00;57.50;;;;;;4960240;28;20054;-15
2022/04/17 01:47:09;;;;;;;1.17;1.17;;;20.00;57.60;;;;;;4959194;28;20059;-16
2022/04/17 01:49:36;;;;;;;1.20;1.20;;;19.90;57.60;;;;;;4959669;28;20039;-14
2022/04/17 01:52:02;;;;;;;1.30;1.20;;;20.00;57.70;;;;;;4969744;28;20519;-14
2022/04/17 01:54:28;;;;;;;1.42;1.42;;;20.00;57.70;;;;;;4967308;28;20126;-14
2022/04/17 01:56:54;;;;;;;1.02;1.02;;;20.00;57.60;;;;;;4959859;28;20472;-15
2022/04/17 01:59:20;;;;;;;1.20;1.20;;;19.90;57.70;;;;;;4959175;28;20040;-14
2022/04/17 02:01:46;;;;;;;1.23;1.02;;;19.90;57.60;;;;;;4959143;28;20051;-15
2022/04/17 02:04:11;;;;;;;1.30;1.20;;;19.90;57.50;;;;;;4990087;28;20130;-15
2022/04/17 02:06:40;;;;;;;1.30;1.30;;;19.90;57.50;;;;;;4959836;28;20047;-15
2022/04/17 02:09:08;;;;;;;1.40;1.30;;;20.00;57.60;;;;;;4959695;28;20048;-16
2022/04/17 02:11:33;;;;;;;1.00;1.00;;;19.90;57.50;;;;;;4959112;28;20051;-15
2022/04/17 02:13:59;;;;;;;0.98;0.98;;;19.90;57.50;;;;;;4959574;28;20050;-15
2022/04/17 02:16:25;;;;;;;1.85;1.50;;;19.90;57.50;;;;;;4959202;28;20050;-15
2022/04/17 02:18:52;;;;;;;1.60;1.50;;;19.90;57.60;;;;;;4959380;28;20456;-15
2022/04/17 02:21:18;;;;;;;1.10;1.10;;;19.90;57.30;;;;;;4958687;28;20146;-14
2022/04/17 02:23:44;;;;;;;1.20;1.20;;;19.90;57.70;;;;;;4959203;28;20122;-15
2022/04/17 02:26:10;;;;;;;1.13;1.13;;;19.90;58.20;;;;;;4959544;28;20476;-15
2022/04/17 02:28:36;;;;;;;1.08;1.08;;;19.90;57.60;;;;;;4958712;28;20066;-15
2022/04/17 02:31:03;;;;;;;1.30;1.30;;;19.90;57.60;;;;;;4959287;28;20077;-14
2022/04/17 02:33:28;;;;;;;1.13;1.13;;;19.80;57.50;;;;;;4958324;28;20448;-14
2022/04/17 02:35:54;;;;;;;1.13;1.13;;;19.80;57.50;;;;;;4990375;28;20046;-15
2022/04/17 02:38:20;;;;;;;1.27;1.25;;;19.90;57.40;;;;;;4958536;28;20050;-15
2022/04/17 02:40:45;;;;;;;1.20;1.20;;;19.80;57.30;;;;;;4959144;28;20039;-14
2022/04/17 02:43:11;;;;;;;1.05;1.05;;;19.80;57.60;;;;;;4958462;28;20042;-18
2022/04/17 02:45:37;;;;;;;1.20;1.20;;;19.80;57.50;;;;;;4957681;28;20055;-14
2022/04/17 02:48:03;;;;;;;1.02;1.02;;;19.80;57.50;;;;;;4958692;28;20043;-15
2022/04/17 02:50:28;;;;;;;0.95;0.95;;;19.80;57.60;;;;;;4989147;28;20123;-14
2022/04/17 02:52:57;;;;;;;0.90;0.90;;;19.80;57.50;;;;;;4960720;28;20055;-15
2022/04/17 02:55:22;;;;;;;1.10;1.10;;;19.80;57.50;;;;;;4958202;28;20102;-14
2022/04/17 02:57:48;;;;;;;1.30;1.10;;;19.80;57.50;;;;;;4958784;28;20043;-14
2022/04/17 03:00:14;;;;;;;1.25;1.23;;;19.80;57.50;;;;;;4958208;28;20043;-16
2022/04/17 03:05:37;;;;;;;1.20;1.08;;;19.80;57.60;;;;;;4958086;28;20066;-14
2022/04/17 03:08:09;;;;;;;1.00;1.00;;;19.80;57.60;;;;;;4958627;28;20417;-15
2022/04/17 03:10:39;;;;;;;0.90;0.90;;;19.70;57.60;;;;;;4957995;28;20051;-14
2022/04/17 03:13:04;;;;;;;1.00;1.00;;;19.70;57.40;;;;;;4957614;28;20039;-14
2022/04/17 03:15:31;;;;;;;0.90;0.90;;;19.80;57.50;;;;;;4958094;28;20047;-15
2022/04/17 03:17:58;;;;;;;1.10;1.10;;;19.70;57.40;;;;;;5004990;28;20049;-14
2022/04/17 03:20:23;;;;;;;1.10;1.10;;;19.70;58.20;;;;;;4977017;28;20046;-15
2022/04/17 03:22:49;;;;;;;1.40;1.30;;;19.70;57.50;;;;;;4977338;28;20522;-15
2022/04/17 03:25:15;;;;;;;1.00;1.00;;;19.70;57.30;;;;;;4959235;28;20047;-14
2022/04/17 03:27:43;;;;;;;1.77;1.13;;;19.80;57.60;;;;;;4957602;28;20043;-15
2022/04/17 03:30:09;;;;;;;0.90;0.90;;;19.70;57.40;;;;;;4958356;28;20340;-15
2022/04/17 03:32:35;;;;;;;1.05;1.05;;;19.70;57.40;;;;;;4957685;28;20558;-15
2022/04/17 03:35:01;;;;;;;1.10;1.10;;;19.70;57.60;;;;;;4958429;28;20050;-15
2022/04/17 03:37:26;;;;;;;0.90;0.90;;;19.70;57.40;;;;;;4957475;28;20093;-14
2022/04/17 03:39:53;;;;;;;1.15;1.15;;;19.70;57.50;;;;;;4958369;28;20051;-14
2022/04/17 03:42:21;;;;;;;1.10;1.10;;;19.70;57.30;;;;;;4957555;28;20047;-15
2022/04/17 03:44:47;;;;;;;1.38;1.27;;;19.70;57.50;;;;;;4958273;28;20051;-14
2022/04/17 03:47:13;;;;;;;1.33;1.10;;;19.70;57.40;;;;;;4957707;28;20129;-15
2022/04/17 03:49:38;;;;;;;1.25;1.23;;;19.70;57.50;;;;;;4957312;28;20063;-14
2022/04/17 03:52:04;;;;;;;1.10;1.10;;;19.60;57.50;;;;;;4965715;28;20094;-14
2022/04/17 03:54:30;;;;;;;1.00;1.00;;;19.70;57.40;;;;;;4957217;28;20051;-14
2022/04/17 03:56:56;;;;;;;0.90;0.90;;;19.70;57.40;;;;;;4957546;28;20070;-14
2022/04/17 03:59:21;;;;;;;1.40;1.30;;;19.60;57.40;;;;;;4957293;28;20055;-15
2022/04/17 04:01:47;;;;;;;1.13;1.13;;;19.60;57.50;;;;;;4957535;28;20122;-15
2022/04/17 04:04:14;;;;;;;1.33;1.33;;;19.60;57.50;;;;;;4957398;28;20061;-15
2022/04/17 04:06:43;;;;;;;0.80;0.80;;;19.60;57.40;;;;;;4957081;28;20102;-15
2022/04/17 04:09:08;;;;;;;0.88;0.88;;;19.60;57.50;;;;;;4964772;28;20055;-14
2022/04/17 04:11:34;;;;;;;4.53;1.48;;;19.60;57.30;;;;;;4976263;28;20118;-14
2022/04/17 04:14:00;;;;;;;1.00;1.00;;;19.60;57.40;;;;;;4965438;28;20142;-14
2022/04/17 04:16:25;;;;;;;1.00;1.00;;;19.60;57.30;;;;;;4960228;28;20093;-15
2022/04/17 04:18:51;;;;;;;1.00;0.93;;;19.60;57.30;;;;;;4976791;28;20051;-15
2022/04/17 04:21:16;;;;;;;1.10;1.10;;;19.60;57.40;;;;;;4962967;28;20059;-15
2022/04/17 04:23:42;;;;;;;0.98;0.98;;;19.60;57.30;;;;;;4956704;28;20058;-15
2022/04/17 04:26:08;;;;;;;0.90;0.90;;;19.60;57.20;;;;;;4957042;28;20066;-15
2022/04/17 04:28:33;;;;;;;1.10;1.10;;;19.60;57.40;;;;;;4956805;28;20416;-16
2022/04/17 04:31:07;;;;;;;1.30;1.08;;;19.60;57.40;;;;;;4957435;28;20050;-14
2022/04/17 04:33:33;;;;;;;1.23;1.15;;;19.60;58.00;;;;;;4975550;28;20129;-14
2022/04/17 04:35:59;;;;;;;0.93;0.93;;;19.60;57.40;;;;;;4969254;28;20097;-15
2022/04/17 04:38:25;;;;;;;0.80;0.80;;;19.50;57.50;;;;;;4956551;28;20524;-14
2022/04/17 04:40:54;;;;;;;0.80;0.80;;;19.50;57.60;;;;;;4957242;28;20047;-15
2022/04/17 04:43:20;;;;;;;1.00;1.00;;;19.50;57.50;;;;;;4956890;28;20047;-16
2022/04/17 04:51:14;;;;;;;0.90;0.90;;;19.50;57.30;;;;;;4960802;28;20093;-14
2022/04/17 04:53:40;;;;;;;0.93;0.93;;;19.50;57.20;;;;;;4975824;28;22192;-15
2022/04/17 04:56:06;;;;;;;1.55;1.45;;;19.50;57.50;;;;;;4961414;28;20048;-14
2022/04/17 04:58:32;;;;;;;1.00;1.00;;;19.50;57.20;;;;;;4956528;28;20058;-15
2022/04/17 05:00:57;;;;;;;1.00;1.00;;;19.50;57.10;;;;;;4957472;28;20047;-15
2022/04/17 05:03:23;;;;;;;1.05;1.05;;;19.50;57.50;;;;;;4956324;28;20077;-15
2022/04/17 05:05:48;;;;;;;1.15;1.15;;;19.50;57.30;;;;;;4956923;28;20102;-14
2022/04/17 05:08:14;;;;;;;1.42;1.35;;;19.50;57.00;;;;;;4974153;28;20459;-14
2022/04/17 05:10:40;;;;;;;1.05;1.05;;;19.50;57.10;;;;;;4975082;28;20050;-14
2022/04/17 05:13:05;;;;;;;1.00;1.00;;;19.50;57.50;;;;;;4976225;28;20053;-14
2022/04/17 05:15:31;;;;;;;1.10;1.10;;;19.50;57.40;;;;;;4973919;28;20038;-15
2022/04/17 05:17:56;;;;;;;1.17;1.17;;;19.50;57.10;;;;;;4974950;28;20046;-14
2022/04/17 05:20:22;;;;;;;1.10;1.10;;;19.40;57.00;;;;;;4975092;28;20035;-15
2022/04/17 05:22:56;;;;;;;1.10;1.10;;;19.50;57.30;;;;;;4974050;28;20062;-15
2022/04/17 05:25:22;;;;;;;1.83;1.00;;;19.50;57.00;;;;;;4996895;28;20046;-16
2022/04/17 05:27:47;;;;;;;0.82;0.82;;;19.40;57.10;;;;;;4973781;28;20073;-15
2022/04/17 05:30:13;;;;;;;1.02;1.02;;;19.50;57.60;;;;;;4973523;28;20043;-14
2022/04/17 05:32:38;;;;;;;1.10;1.10;;;19.40;57.20;;;;;;4973033;28;20046;-16
2022/04/17 05:35:05;;;;;;;1.20;1.20;;;19.40;57.40;;;;;;4981610;28;20043;-14
2022/04/17 05:37:30;;;;;;;1.00;1.00;;;19.40;57.30;;;;;;4973136;28;20061;-14
2022/04/17 05:39:56;;;;;;;1.02;1.02;;;19.50;57.10;;;;;;4978640;28;20050;-15
2022/04/17 05:42:21;;;;;;;1.00;1.00;;;19.50;57.30;;;;;;4974092;28;21190;-15
2022/04/17 05:44:47;;;;;;;1.13;1.13;;;19.50;57.00;;;;;;4977622;28;20042;-14
2022/04/17 05:47:13;;;;;;;1.00;1.00;;;19.50;57.10;;;;;;4976182;28;20510;-14
2022/04/17 05:49:39;;;;;;;2.72;1.00;;;19.40;57.20;;;;;;4975225;28;20469;-15
2022/04/17 05:52:05;;;;;;;0.88;0.88;;;19.40;57.30;;;;;;4973981;28;20069;-14
2022/04/17 05:54:30;;;;;;;0.95;0.95;;;19.40;57.30;;;;;;4958099;28;20496;-14
2022/04/17 05:56:56;;;;;;;0.77;0.77;;;19.40;57.30;;;;;;4958679;28;20382;-14
2022/04/17 05:59:22;;;;;;;1.00;1.00;;;19.40;57.20;;;;;;4960098;28;20129;-15
2022/04/17 06:01:47;;;;;;;0.80;0.80;;;19.40;57.20;;;;;;4959010;28;20047;-14
2022/04/17 06:04:13;;;;;;;1.50;1.13;;;19.40;57.40;;;;;;4959885;28;20050;-14
2022/04/17 06:06:39;;;;;;;0.80;0.80;;;19.40;57.20;;;;;;4958804;28;20079;-13
2022/04/17 06:09:04;;;;;;;1.98;0.95;;;19.30;57.60;;;;;;4616785;28;9999906;-14
2022/04/17 06:11:30;;;;;;;0.90;0.90;;;19.40;57.70;;;;;;4970888;28;20611;-14
2022/04/17 06:13:56;;;;;;;2.83;1.63;;;19.50;56.40;;;;;;4974385;28;20515;-14
2022/04/17 06:16:21;;;;;;;1.60;1.50;;;19.30;55.50;;;;;;4969438;28;20047;-15
2022/04/17 06:18:47;;;;;;;1.88;1.80;;;19.10;54.30;;;;;;4974007;28;20133;-13
2022/04/17 06:21:13;;;;;;;2.17;2.08;;;19.00;53.20;;;;;;4974433;28;20049;-14
2022/04/17 06:23:39;;;;;;;2.05;1.95;;;18.70;52.80;;;;;;4961115;28;20043;-14
2022/04/17 06:26:06;;;;;;;2.33;2.22;;;18.50;53.60;;;;;;4973588;28;20035;-14
2022/04/17 06:28:32;;;;;;;2.20;2.10;;;18.60;52.30;;;;;;4960722;28;20072;-15
2022/04/17 06:30:57;;;;;;;2.15;2.05;;;18.40;52.50;;;;;;4961643;28;20043;-15
2022/04/17 06:33:23;;;;;;;2.55;2.45;;;18.20;52.40;;;;;;4963387;28;20054;-14
2022/04/17 06:35:49;;;;;;;2.05;1.95;;;18.20;52.60;;;;;;4960494;28;20049;-14
2022/04/17 06:38:15;;;;;;;2.20;2.10;;;18.00;52.40;;;;;;4974207;28;20038;-14
2022/04/17 06:40:42;;;;;;;1.85;1.75;;;17.90;52.30;;;;;;4961289;28;20049;-14
2022/04/17 06:43:08;;;;;;;2.08;1.98;;;17.80;53.00;;;;;;4972991;28;20397;-14
2022/04/17 06:45:35;;;;;;;2.08;1.98;;;17.90;53.10;;;;;;4970226;28;20047;-14
2022/04/17 06:48:14;;;;;;;2.63;2.00;;;17.90;52.80;;;;;;4974233;28;20054;-14
2022/04/17 06:50:41;;;;;;;1.98;1.88;;;18.00;52.60;;;;;;4973521;28;20056;-14
2022/04/17 06:53:06;;;;;;;2.00;1.90;;;18.00;53.10;;;;;;4961062;28;20114;-15
2022/04/17 06:55:32;;;;;;;1.90;1.80;;;17.90;52.90;;;;;;4953699;28;20107;-14
2022/04/17 06:57:58;;;;;;;2.00;1.90;;;17.90;52.80;;;;;;4954510;28;20058;-14
2022/04/17 07:00:23;;;;;;;2.10;2.00;;;17.80;53.00;;;;;;4961271;28;20046;-15
2022/04/17 07:02:49;;;;;;;2.10;2.00;;;17.80;53.20;;;;;;4960910;28;20055;-15
2022/04/17 07:05:14;;;;;;;2.20;2.10;;;18.00;52.40;;;;;;4973665;28;20043;-14
2022/04/17 07:07:40;;;;;;;2.38;1.90;;;17.90;52.80;;;;;;4959409;28;20062;-15
2022/04/17 07:10:07;;;;;;;2.00;1.90;;;17.80;53.10;;;;;;4973536;28;20051;-14
2022/04/17 07:12:34;;;;;;;2.22;2.05;;;17.80;53.00;;;;;;4959175;28;20054;-14
2022/04/17 07:15:00;;;;;;;2.30;2.10;;;17.60;53.40;;;;;;4966366;28;20038;-14
2022/04/17 07:17:39;;;;;;;2.47;2.38;;;17.60;53.30;;;;;;4966480;28;20046;-14
2022/04/17 07:20:06;;;;;;;2.03;1.92;;;17.60;53.30;;;;;;4964898;28;20058;-13
2022/04/17 07:22:32;;;;;;;2.00;1.90;;;17.70;53.30;;;;;;4966417;28;20468;-14
2022/04/17 07:25:01;;;;;;;2.42;2.30;;;17.70;53.50;;;;;;4963520;28;20054;-15
2022/04/17 07:27:47;;;;;;;2.70;2.03;;;17.70;53.20;;;;;;4971559;28;20098;-14
2022/04/17 07:30:14;;;;;;;1.70;1.60;;;17.80;53.30;;;;;;4958848;28;20460;-14
2022/04/17 07:32:44;;;;;;;2.10;2.00;;;17.90;53.10;;;;;;4971264;28;20057;-14
2022/04/17 07:35:10;;;;;;;2.00;1.90;;;17.80;53.00;;;;;;4972920;28;20051;-14
2022/04/17 07:37:36;;;;;;;1.92;1.83;;;18.10;52.80;;;;;;4954444;28;20051;-14
2022/04/17 07:40:25;;;;;;;1.83;1.73;;;18.00;52.60;;;;;;4966656;28;20054;-14
2022/04/17 07:42:51;;;;;;;1.80;1.70;;;17.50;53.00;;;;;;4972676;28;20058;-14
2022/04/17 07:45:16;;;;;;;1.98;1.88;;;17.40;53.10;;;;;;4970437;28;20132;-14
2022/04/17 07:47:42;;;;;;;1.38;1.38;;;17.40;54.10;;;;;;4963951;28;20051;-14
2022/04/17 07:50:08;;;;;;;2.00;1.90;;;17.30;54.00;;;;;;4969146;28;20053;-14
2022/04/17 07:52:37;;;;;;;1.40;1.30;;;17.40;54.10;;;;;;4972539;28;20141;-13
2022/04/17 07:55:03;;;;;;;1.42;1.33;;;17.40;54.00;;;;;;4960479;28;20051;-14
2022/04/17 07:57:30;;;;;;;1.67;1.63;;;17.10;53.80;;;;;;4964175;28;20051;-15
2022/04/17 07:59:56;;;;;;;1.50;1.50;;;17.10;54.30;;;;;;4968853;28;20058;-15
2022/04/17 08:02:22;;;;;;;1.20;1.20;;;17.00;54.40;;;;;;4973123;28;20465;-14
2022/04/17 08:04:51;;;;;;;11.43;1.63;;;17.10;53.80;;;;;;4972308;28;20047;-14
2022/04/17 08:07:21;;;;;;;1.52;1.42;;;17.20;54.50;;;;;;4967917;28;20055;-14
2022/04/17 08:09:46;;;;;;;1.30;1.20;;;17.20;54.10;;;;;;4972084;28;20139;-15
2022/04/17 08:12:12;;;;;;;1.15;1.10;;;17.20;54.30;;;;;;4966716;28;20055;-14
2022/04/17 08:14:37;;;;;;;1.33;1.30;;;17.10;54.40;;;;;;4970377;28;20051;-14
2022/04/17 08:17:04;;;;;;;1.38;1.27;;;17.20;54.30;;;;;;4972556;28;20059;-14
2022/04/17 08:19:32;;;;;;;1.23;1.13;;;16.80;54.10;;;;;;4969976;28;20586;-14
2022/04/17 08:22:04;;;;;;;1.55;1.55;;;16.60;53.70;;;;;;4964213;28;20145;-14
2022/04/17 08:24:30;;;;;;;1.30;1.20;;;16.60;53.90;;;;;;4972326;28;20519;-15
2022/04/17 08:26:58;;;;;;;0.77;0.77;;;16.80;54.20;;;;;;4959795;28;20134;-13
2022/04/17 08:29:23;;;;;;;1.20;1.20;;;17.00;54.40;;;;;;4966721;28;20039;-15
2022/04/17 08:31:49;;;;;;;1.38;1.27;;;16.80;54.30;;;;;;4965384;28;20057;-15
2022/04/17 08:34:15;;;;;;;0.70;0.70;;;16.90;53.90;;;;;;4959746;28;20074;-16
2022/04/17 08:36:40;;;;;;;1.27;1.17;;;17.00;54.40;;;;;;4959199;28;20047;-15
2022/04/17 08:39:06;;;;;;;1.20;1.20;;;17.10;53.40;;;;;;4960531;28;20150;-14
2022/04/17 08:41:32;;;;;;;1.40;1.00;;;16.80;54.00;;;;;;4972069;28;20061;-15
2022/04/17 08:43:58;;;;;;;0.70;0.70;;;16.90;55.10;;;;;;4977120;28;20513;-15
2022/04/17 08:46:24;;;;;;;0.88;0.88;;;17.20;54.80;;;;;;4953484;28;20373;-15
2022/04/17 08:48:50;;;;;;;1.25;1.20;;;17.30;54.20;;;;;;4972193;28;20142;-14
2022/04/17 08:51:16;;;;;;;1.20;1.10;;;17.20;52.80;;;;;;4970975;28;20635;-14
2022/04/17 08:53:41;;;;;;;2.08;0.82;;;17.00;53.80;;;;;;4964695;28;20078;-14
2022/04/17 08:56:07;;;;;;;1.48;0.90;;;17.20;53.80;;;;;;4951908;28;20046;-14
2022/04/17 08:58:32;;;;;;;3.03;0.75;;;17.20;54.60;;;;;;4965880;28;20043;-14
2022/04/17 09:00:58;;;;;;;1.00;0.85;;;17.40;53.90;;;;;;4964046;28;20193;-14
2022/04/17 09:03:24;;;;;;;0.80;0.80;;;17.40;53.80;;;;;;4972377;28;20050;-14
2022/04/17 09:05:49;;;;;;;1.65;1.00;;;17.50;53.10;;;;;;4966494;28;20043;-14
2022/04/17 09:08:16;;;;;;;1.00;1.00;;;17.50;53.50;;;;;;4996812;28;20050;-14
2022/04/17 09:10:52;;;;;;;1.08;1.00;;;17.50;53.40;;;;;;4968119;28;20129;-14
2022/04/17 09:13:24;;;;;;;0.70;0.70;;;17.60;53.50;;;;;;4979507;28;20042;-14
2022/04/17 09:15:50;;;;;;;1.15;0.70;;;17.80;53.20;;;;;;4989487;28;20116;-14
2022/04/17 09:18:17;;;;;;;0.90;0.90;;;17.90;53.00;;;;;;4977879;28;20058;-14
2022/04/17 09:20:49;;;;;;;0.80;0.80;;;18.00;53.10;;;;;;4965602;28;20051;-14
2022/04/17 09:23:15;;;;;;;0.57;0.57;;;18.20;52.40;;;;;;4959710;28;20047;-14
2022/04/17 09:25:44;;;;;;;0.63;0.60;;;18.10;52.70;;;;;;4989936;28;20057;-14
2022/04/17 09:28:10;;;;;;;0.75;0.75;;;18.10;52.70;;;;;;4959799;28;20081;-13
2022/04/17 09:30:40;;;;;;;0.90;0.90;;;18.10;52.90;;;;;;4958616;28;20139;-15
2022/04/17 09:33:09;;;;;;;0.60;0.60;;;18.10;52.90;;;;;;4961155;28;20409;-14
2022/04/17 09:35:35;;;;;;;0.70;0.70;;;18.10;52.90;;;;;;4979706;28;20042;-13
2022/04/17 09:38:03;;;;;;;1.75;0.85;;;18.10;52.90;;;;;;4977800;28;20177;-14
2022/04/17 09:40:29;;;;;;;0.70;0.70;;;18.10;52.90;;;;;;4961968;28;20461;-15
2022/04/17 09:43:16;;;;;;;1.85;0.68;;;18.20;52.90;;;;;;4958340;28;20043;-14
2022/04/17 09:46:01;;;;;;;0.50;0.50;;;18.20;52.80;;;;;;4959402;28;20526;-14
2022/04/17 09:48:31;;;;;;;0.90;0.82;;;18.20;52.90;;;;;;4960136;28;20071;-14
2022/04/17 09:50:57;;;;;;;0.70;0.60;;;18.20;53.00;;;;;;4966605;28;20042;-13
2022/04/17 09:53:36;;;;;;;1.15;0.60;;;18.30;53.10;;;;;;4979082;28;20051;-14
2022/04/17 09:56:11;;;;;;;0.70;0.70;;;18.30;53.10;;;;;;4977877;28;20058;-13
2022/04/17 09:58:50;;;;;;;0.70;0.65;;;18.30;53.00;;;;;;4976047;28;20038;-15
2022/04/17 10:01:18;;;;;;;0.60;0.60;;;18.30;52.90;;;;;;4959634;28;20071;-14
2022/04/17 10:03:44;;;;;;;0.82;0.70;;;18.30;53.00;;;;;;4958921;28;20508;-13
2022/04/17 10:06:10;;;;;;;0.80;0.80;;;18.30;53.00;;;;;;4958571;28;20385;-13
2022/04/17 10:08:37;;;;;;;0.70;0.70;;;18.30;53.00;;;;;;4959571;28;20039;-14
2022/04/17 10:11:03;;;;;;;0.70;0.70;;;18.30;52.90;;;;;;4959560;28;20476;-15
2022/04/17 10:13:29;;;;;;;0.63;0.63;;;18.40;52.90;;;;;;4974492;28;20043;-14
2022/04/17 10:15:55;;;;;;;0.60;0.60;;;18.40;53.10;;;;;;4989331;28;20519;-19
2022/04/17 10:18:21;;;;;;;1.88;0.88;;;18.40;53.00;;;;;;4993341;28;20412;-14
2022/04/17 10:20:47;;;;;;;0.77;0.77;;;18.50;53.20;;;;;;4972167;28;20047;-14
2022/04/17 10:23:13;;;;;;;1.98;0.60;;;18.60;53.00;;;;;;4973369;28;20043;-14
2022/04/17 10:25:39;;;;;;;0.70;0.65;;;18.60;53.20;;;;;;4989133;28;20110;-15
2022/04/17 10:28:05;;;;;;;0.70;0.70;;;18.60;53.20;;;;;;4990250;28;20043;-14
2022/04/17 10:30:53;;;;;;;0.60;0.60;;;18.60;53.00;;;;;;4985454;28;20056;-14
2022/04/17 10:33:56;;;;;;;0.80;0.80;;;18.80;53.20;;;;;;4989211;28;20651;-14
2022/04/17 10:36:35;;;;;;;0.63;0.63;;;19.00;52.80;;;;;;4958807;28;20043;-14
2022/04/17 10:39:05;;;;;;;0.50;0.50;;;19.20;52.10;;;;;;4957122;28;20527;-14
2022/04/17 10:41:30;;;;;;;1.35;0.68;;;19.10;52.10;;;;;;4959469;28;20050;-14
2022/04/17 10:43:56;;;;;;;0.40;0.40;;;19.10;52.30;;;;;;4989420;28;20036;-14
2022/04/17 10:46:22;;;;;;;0.40;0.40;;;19.10;52.50;;;;;;4963737;28;20113;-14
2022/04/17 10:48:52;;;;;;;0.47;0.47;;;19.10;52.50;;;;;;4975158;28;20046;-15
2022/04/17 10:51:29;;;;;;;0.57;0.57;;;19.00;52.70;;;;;;4975524;28;20065;-14
2022/04/17 10:54:10;;;;;;;0.65;0.65;;;19.00;52.80;;;;;;4973509;28;20043;-14
2022/04/17 10:56:39;;;;;;;0.93;0.70;;;19.00;52.90;;;;;;4976590;28;20518;-14
2022/04/17 10:59:18;;;;;;;0.55;0.55;;;19.00;52.70;;;;;;4974513;28;20047;-14
2022/04/17 11:01:44;;;;;;;0.80;0.80;;;19.10;52.40;;;;;;4973809;28;20073;-14
2022/04/17 11:04:22;;;;;;;1.10;0.50;;;19.00;52.30;;;;;;4977223;28;20043;-14
2022/04/17 11:07:12;;;;;;;0.40;0.40;;;19.00;51.50;;;;;;4972407;28;20043;-14
2022/04/17 11:09:41;;;;;;;0.40;0.40;;;19.00;50.90;;;;;;4976647;28;20062;-15
2022/04/17 11:12:10;;;;;;;0.43;0.43;;;19.00;50.00;;;;;;4973222;28;20090;-14
2022/04/17 11:14:36;;;;;;;0.73;0.73;;;19.00;50.50;;;;;;4972327;28;20050;-13
2022/04/17 11:17:08;;;;;;;0.50;0.50;;;19.00;50.20;;;;;;4976852;28;20113;-14
2022/04/17 11:19:34;;;;;;;0.50;0.50;;;19.20;50.30;;;;;;4618244;28;10000188;-15
2022/04/17 11:22:04;;;;;;;0.63;0.50;;;19.10;51.00;;;;;;4972642;28;20050;-14
2022/04/17 11:24:55;;;;;;;0.75;0.60;;;19.10;51.00;;;;;;4972015;28;20050;-14
2022/04/17 11:27:45;;;;;;;0.30;0.30;;;19.10;51.20;;;;;;4964949;28;20042;-15
2022/04/17 11:30:13;;;;;;;0.40;0.40;;;19.10;51.30;;;;;;4962228;28;20571;-14
2022/04/17 11:32:40;;;;;;;0.40;0.40;;;19.20;51.80;;;;;;4960732;28;20137;-14
2022/04/17 11:35:26;;;;;;;0.40;0.40;;;19.10;51.80;;;;;;4965278;28;20047;-14
2022/04/17 11:38:13;;;;;;;0.60;0.60;;;19.20;51.80;;;;;;4959642;28;20051;-14
2022/04/17 11:40:41;;;;;;;0.60;0.60;;;19.20;51.90;;;;;;4973336;28;20149;-14
2022/04/17 11:43:09;;;;;;;0.35;0.35;;;19.20;52.20;;;;;;4972695;28;20133;-14
2022/04/17 11:45:34;;;;;;;0.60;0.60;;;19.20;52.10;;;;;;4963190;28;20074;-13
2022/04/17 11:48:05;;;;;;;0.40;0.40;;;19.20;52.30;;;;;;4984229;28;20794;-14
2022/04/17 11:50:30;;;;;;;0.50;0.50;;;19.20;52.20;;;;;;4962632;28;20053;-13
2022/04/17 11:53:00;;;;;;;0.40;0.40;;;19.30;52.30;;;;;;4979886;28;20054;-14
2022/04/17 11:55:34;;;;;;;0.60;0.60;;;19.30;52.50;;;;;;4963284;28;20085;-14
2022/04/17 11:58:00;;;;;;;0.73;0.73;;;19.30;52.30;;;;;;4973554;28;20038;-17
2022/04/17 12:00:26;;;;;;;0.75;0.40;;;19.30;52.50;;;;;;4963525;28;20046;-17
2022/04/17 12:02:56;;;;;;;0.60;0.60;;;19.30;52.50;;;;;;4960898;28;20075;-17
2022/04/17 12:05:22;;;;;;;1.38;0.40;;;19.40;52.30;;;;;;4959896;28;20055;-17
2022/04/17 12:08:06;;;;;;;0.50;0.50;;;19.50;52.40;;;;;;4958140;28;20062;-17
2022/04/17 12:10:33;;;;;;;1.65;0.60;;;19.50;52.40;;;;;;4955836;28;20145;-17
2022/04/17 12:12:58;;;;;;;0.52;0.50;;;19.40;52.40;;;;;;4959193;28;20625;-17
2022/04/17 12:15:24;;;;;;;0.50;0.50;;;19.50;52.50;;;;;;4956639;28;20050;-17
2022/04/17 12:17:59;;;;;;;0.40;0.40;;;19.50;52.40;;;;;;4958877;28;20673;-17
2022/04/17 12:20:25;;;;;;;0.50;0.50;;;19.50;52.60;;;;;;4956177;28;20142;-17
2022/04/17 12:22:51;;;;;;;0.40;0.40;;;19.60;52.80;;;;;;4958851;28;20055;-20
2022/04/17 12:25:19;;;;;;;0.57;0.55;;;19.60;52.90;;;;;;4957264;28;20066;-17
2022/04/17 12:27:48;;;;;;;0.63;0.63;;;19.60;52.70;;;;;;4959102;28;20070;-18
2022/04/17 12:30:20;;;;;;;0.43;0.43;;;19.60;52.90;;;;;;4955931;28;20097;-17
2022/04/17 12:32:46;;;;;;;0.40;0.40;;;19.70;52.90;;;;;;4959451;28;20059;-17
2022/04/17 12:35:15;;;;;;;0.85;0.70;;;19.70;52.80;;;;;;4958809;28;20057;-17
2022/04/17 12:37:41;;;;;;;0.30;0.30;;;19.70;52.80;;;;;;4958381;28;20051;-16
2022/04/17 12:40:13;;;;;;;0.38;0.38;;;19.70;52.80;;;;;;4956597;28;20698;-17
2022/04/17 12:42:39;;;;;;;0.40;0.40;;;19.80;52.80;;;;;;4959031;28;20133;-16
2022/04/17 12:45:06;;;;;;;0.35;0.35;;;19.80;52.80;;;;;;4957749;28;20574;-17
2022/04/17 12:47:32;;;;;;;0.60;0.60;;;19.80;52.80;;;;;;4960216;28;21018;-16
2022/04/17 12:50:05;;;;;;;0.30;0.30;;;19.80;52.80;;;;;;4958641;28;20054;-17
2022/04/17 12:52:31;;;;;;;0.65;0.47;;;19.90;52.90;;;;;;4963378;28;20670;-16
2022/04/17 12:54:59;;;;;;;0.50;0.50;;;19.90;52.80;;;;;;4961173;28;21315;-17
2022/04/17 12:57:25;;;;;;;0.40;0.40;;;19.90;52.70;;;;;;4962660;28;21562;-16
2022/04/17 12:59:51;;;;;;;0.30;0.30;;;19.90;52.80;;;;;;4959998;28;20042;-17